Metar Aviation Weather Data EIDW Dublin

7°C Temp
3°C Dewpoint
76% Humidity
Temperature
8 KM/H
5 MPH
4 KTS
180°
Due South

Wind Speed
Partly Cloudy
Conditions
Pressure 1038 (hPa) - 30.65 (in)
Visibility 6.2 (mi) - 10 (km)

Current Conditions
EIDW
Dublin
Metar :EIDW 242300Z 18004KT 9999 FEW020 07/03 Q1038 NOSIG
Tue 25th September 00:00 am

Dublin
  Metar Aviation API Data Provided by https://www.checkwx.com/ PHP scripts by weather34.com ©2018